createdAt,value
2019-02-28T00:00:12.886Z,1003.76
2019-02-28T00:05:14.462Z,1003.7
2019-02-28T00:10:01.677Z,1003.7
2019-02-28T00:15:01.899Z,1003.6
2019-02-28T00:20:04.188Z,1003.62
2019-02-28T00:25:14.669Z,1003.58
2019-02-28T00:30:12.423Z,1003.57
2019-02-28T00:35:20.479Z,1003.55
2019-02-28T00:40:17.708Z,1003.5
2019-02-28T00:45:13.626Z,1003.37
2019-02-28T00:50:16.150Z,1003.31
2019-02-28T00:55:15.596Z,1003.24
2019-02-28T01:00:13.412Z,1003.25
2019-02-28T01:05:13.345Z,1003.2
2019-02-28T01:10:13.694Z,1003.1
2019-02-28T01:15:16.056Z,1003.13
2019-02-28T01:20:16.912Z,1003.06
2019-02-28T01:25:12.140Z,1002.93
2019-02-28T01:30:13.044Z,1002.85
2019-02-28T01:35:14.613Z,1002.8
2019-02-28T01:40:14.969Z,1002.77
2019-02-28T01:45:19.140Z,1002.72
2019-02-28T01:50:17.711Z,1002.71
2019-02-28T01:55:16.991Z,1002.6
2019-02-28T02:00:18.257Z,1002.57
2019-02-28T02:05:18.020Z,1002.58
2019-02-28T02:10:09.555Z,1002.5
2019-02-28T02:15:08.707Z,1002.47
2019-02-28T02:20:14.091Z,1002.41
2019-02-28T02:25:17.622Z,1002.26
2019-02-28T02:30:16.405Z,1002.24
2019-02-28T02:35:15.860Z,1002.12
2019-02-28T02:40:15.794Z,1002.11
2019-02-28T02:45:13.682Z,1002.06
2019-02-28T02:50:08.705Z,1001.91
2019-02-28T02:55:11.565Z,1001.91
2019-02-28T03:00:15.606Z,1001.83
2019-02-28T03:05:10.527Z,1001.77
2019-02-28T03:10:19.508Z,1001.72
2019-02-28T03:15:11.858Z,1001.75
2019-02-28T03:20:14.306Z,1001.74
2019-02-28T03:25:13.922Z,1001.7
2019-02-28T03:30:30.790Z,1001.69
2019-02-28T03:35:20.738Z,1001.71
2019-02-28T03:40:21.664Z,1001.64
2019-02-28T03:45:13.642Z,1001.7
2019-02-28T03:50:23.110Z,1001.73
2019-02-28T03:55:20.344Z,1001.73
2019-02-28T04:00:15.273Z,1001.79
2019-02-28T04:05:28.201Z,1001.77
2019-02-28T04:10:07.650Z,1001.71
2019-02-28T04:15:11.846Z,1001.68
2019-02-28T04:20:08.187Z,1001.73
2019-02-28T04:25:10.138Z,1001.65
2019-02-28T04:30:11.860Z,1001.55
2019-02-28T04:35:13.513Z,1001.55
2019-02-28T04:40:17.263Z,1001.55
2019-02-28T04:45:14.500Z,1001.59
2019-02-28T04:50:18.844Z,1001.55
2019-02-28T04:55:14.514Z,1001.49
2019-02-28T05:00:14.648Z,1001.36
2019-02-28T05:05:20.430Z,1001.41
2019-02-28T05:10:13.953Z,1001.38
2019-02-28T05:15:13.440Z,1001.45
2019-02-28T05:20:18.752Z,1001.51
2019-02-28T05:25:19.749Z,1001.45
2019-02-28T05:30:19.791Z,1001.44
2019-02-28T05:35:14.541Z,1001.48
2019-02-28T05:40:13.951Z,1001.45
2019-02-28T05:45:15.864Z,1001.47
2019-02-28T05:50:24.473Z,1001.44
2019-02-28T05:55:12.905Z,1001.44
2019-02-28T06:00:07.016Z,1001.47
2019-02-28T06:05:12.602Z,1001.41
2019-02-28T06:10:05.828Z,1001.44
2019-02-28T06:15:09.828Z,1001.44
2019-02-28T06:20:17.680Z,1001.28
2019-02-28T06:25:23.531Z,1001.27
2019-02-28T06:30:14.041Z,1001.29
2019-02-28T06:35:20.297Z,1001.22
2019-02-28T06:40:13.976Z,1001.26
2019-02-28T06:45:17.434Z,1001.22
2019-02-28T06:50:16.911Z,1001.21
2019-02-28T06:55:21.847Z,1001.3
2019-02-28T07:00:14.280Z,1001.38
2019-02-28T07:05:15.911Z,1001.29
2019-02-28T07:10:20.193Z,1001.33
2019-02-28T07:15:13.094Z,1001.29
2019-02-28T07:20:17.614Z,1001.32
2019-02-28T07:25:20.201Z,1001.26
2019-02-28T07:30:19.150Z,1001.29
2019-02-28T07:35:13.326Z,1001.2
2019-02-28T07:40:16.910Z,1001.2
2019-02-28T07:45:12.264Z,1001.23
2019-02-28T07:50:13.863Z,1001.21
2019-02-28T07:55:15.101Z,1001.23
2019-02-28T08:00:18.549Z,1001.26
2019-02-28T08:05:20.247Z,1001.27
2019-02-28T08:10:16.059Z,1001.16
2019-02-28T08:15:14.855Z,1001.01
2019-02-28T08:20:11.407Z,1001.1
2019-02-28T08:25:14.537Z,1001.22
2019-02-28T08:30:12.982Z,1001.08
2019-02-28T08:35:17.771Z,1001.04
2019-02-28T08:40:16.489Z,1001.07
2019-02-28T08:45:12.852Z,1001.07
2019-02-28T08:50:21.588Z,1001.03
2019-02-28T08:55:15.861Z,1000.98
2019-02-28T09:00:15.323Z,1000.98
2019-02-28T09:05:18.018Z,1000.96
2019-02-28T09:10:12.830Z,1001.05
2019-02-28T09:15:04.164Z,1001.07
2019-02-28T09:20:17.083Z,1001.14
2019-02-28T09:25:22.745Z,1000.99
2019-02-28T09:30:12.631Z,1000.93
2019-02-28T09:35:18.801Z,1000.83
2019-02-28T09:40:14.374Z,1000.76
2019-02-28T09:45:13.046Z,1000.73
2019-02-28T09:50:12.459Z,1000.74
2019-02-28T09:55:11.362Z,1000.83
2019-02-28T10:00:16.877Z,1000.83
2019-02-28T10:05:13.562Z,1000.8
2019-02-28T11:20:22.473Z,1000.71
2019-02-28T11:25:16.321Z,1000.62
2019-02-28T11:30:22.623Z,1000.56
2019-02-28T11:35:30.050Z,1000.42
2019-02-28T11:40:18.185Z,1000.46
2019-02-28T11:45:23.207Z,1000.44
2019-02-28T11:50:12.176Z,1000.51
2019-02-28T11:55:28.609Z,1000.42
2019-02-28T12:00:17.303Z,1000.28
2019-02-28T12:05:20.828Z,1000.34
2019-02-28T12:10:18.808Z,1000.25
2019-02-28T12:15:23.437Z,1000.24
2019-02-28T12:20:27.428Z,1000.25
2019-02-28T12:25:15.433Z,1000.22
2019-02-28T12:30:13.067Z,1000.19
2019-02-28T12:35:23.122Z,1000.07
2019-02-28T12:40:20.204Z,1000.03
2019-02-28T12:45:12.184Z,1000
2019-02-28T12:50:13.773Z,1000.12
2019-02-28T12:55:09.328Z,1000.15
2019-02-28T13:00:07.287Z,1000.22
2019-02-28T13:05:17.558Z,1000.23
2019-02-28T13:10:10.551Z,1000.22
2019-02-28T13:15:05.002Z,1000.2
2019-02-28T13:20:12.686Z,1000.27
2019-02-28T13:25:08.362Z,1000.27
2019-02-28T13:30:11.816Z,1000.3
2019-02-28T13:35:12.589Z,1000.37
2019-02-28T13:40:12.312Z,1000.35
2019-02-28T13:45:02.776Z,1000.53
2019-02-28T13:50:08.569Z,1000.43
2019-02-28T13:55:06.519Z,1000.61
2019-02-28T14:00:09.153Z,1000.74
2019-02-28T14:05:07.271Z,1000.73
2019-02-28T14:10:07.072Z,1000.82
2019-02-28T14:15:02.637Z,1001.05
2019-02-28T14:20:07.168Z,1001.21
2019-02-28T14:25:09.154Z,1001.24
2019-02-28T14:30:02.775Z,1001.33
2019-02-28T14:35:06.000Z,1001.32
2019-02-28T14:40:05.226Z,1001.35
2019-02-28T14:45:07.922Z,1001.2
2019-02-28T14:50:04.699Z,1001.18
2019-02-28T14:55:05.832Z,1001.08
2019-02-28T15:00:07.456Z,1001.04
2019-02-28T15:05:08.831Z,1001.12
2019-02-28T15:10:09.049Z,1001.12
2019-02-28T15:15:04.822Z,1001.12
2019-02-28T15:20:07.763Z,1001.14
2019-02-28T15:25:06.717Z,1001.13
2019-02-28T15:30:03.941Z,1001.05
2019-02-28T15:35:07.832Z,1001.09
2019-02-28T15:40:06.347Z,1001
2019-02-28T15:45:05.761Z,1000.96
2019-02-28T15:50:06.440Z,1000.9
2019-02-28T15:55:07.446Z,1000.9
2019-02-28T16:00:04.345Z,1000.97
2019-02-28T16:05:11.662Z,1000.94
2019-02-28T16:10:07.721Z,1000.93
2019-02-28T16:15:08.776Z,1000.79
2019-02-28T16:20:07.741Z,1000.77
2019-02-28T16:25:06.862Z,1000.84
2019-02-28T16:30:04.439Z,1000.78
2019-02-28T16:35:06.034Z,1000.77
2019-02-28T16:40:06.614Z,1000.76
2019-02-28T16:45:10.095Z,1000.74
2019-02-28T16:50:06.360Z,1000.56
2019-02-28T16:55:07.000Z,1000.58
2019-02-28T17:00:08.626Z,1000.59
2019-02-28T17:05:07.093Z,1000.57
2019-02-28T17:10:07.542Z,1000.6
2019-02-28T17:15:04.244Z,1000.52
2019-02-28T17:20:09.072Z,1000.49
2019-02-28T17:25:08.760Z,1000.43
2019-02-28T17:30:04.312Z,1000.48
2019-02-28T17:35:06.720Z,1000.44
2019-02-28T17:40:09.620Z,1000.47
2019-02-28T17:45:04.345Z,1000.42
2019-02-28T17:50:08.835Z,1000.45
2019-02-28T17:55:09.626Z,1000.44
2019-02-28T18:00:05.120Z,1000.49
2019-02-28T18:05:09.415Z,1000.48
2019-02-28T18:10:07.345Z,1000.48
2019-02-28T18:15:09.682Z,1000.5
2019-02-28T18:20:09.038Z,1000.53
2019-02-28T18:25:07.598Z,1000.42
2019-02-28T18:30:08.473Z,1000.29
2019-02-28T18:35:07.034Z,1000.3
2019-02-28T18:40:07.240Z,1000.27
2019-02-28T18:45:03.892Z,1000.24
2019-02-28T18:50:07.892Z,1000.33
2019-02-28T18:55:09.632Z,1000.17
2019-02-28T19:00:04.326Z,1000.15
2019-02-28T19:05:07.688Z,1000.1
2019-02-28T19:10:06.752Z,1000.04
2019-02-28T19:15:04.361Z,999.95
2019-02-28T19:20:07.405Z,999.9
2019-02-28T19:25:08.751Z,999.88
2019-02-28T19:30:06.042Z,999.83
2019-02-28T19:35:08.880Z,999.76
2019-02-28T19:40:07.939Z,999.68
2019-02-28T19:45:03.382Z,999.74
2019-02-28T19:50:08.659Z,999.66
2019-02-28T19:55:07.805Z,999.62
2019-02-28T20:00:03.360Z,999.54
2019-02-28T20:05:07.657Z,999.45
2019-02-28T20:10:06.276Z,999.34
2019-02-28T20:15:07.291Z,999.41
2019-02-28T20:20:07.171Z,999.39
2019-02-28T20:25:07.963Z,999.33
2019-02-28T20:30:03.414Z,999.25
2019-02-28T20:35:07.443Z,999.21
2019-02-28T20:40:06.247Z,999.24
2019-02-28T20:45:02.740Z,999.18
2019-02-28T20:50:06.343Z,999.14
2019-02-28T20:55:08.214Z,999.15
2019-02-28T21:00:03.410Z,999.14
2019-02-28T21:05:06.578Z,999.08
2019-02-28T21:10:09.121Z,999.1
2019-02-28T21:15:02.915Z,999.05
2019-02-28T21:20:05.886Z,999.06
2019-02-28T21:25:06.185Z,999.06
2019-02-28T21:30:02.715Z,999.04
2019-02-28T21:35:05.770Z,998.97
2019-02-28T21:40:05.769Z,998.97
2019-02-28T21:45:03.254Z,998.94
2019-02-28T21:50:04.933Z,998.91
2019-02-28T21:55:07.973Z,998.79
2019-02-28T22:00:03.983Z,998.77
2019-02-28T22:05:06.052Z,998.74
2019-02-28T22:10:08.929Z,998.75
2019-02-28T22:15:04.479Z,998.7
2019-02-28T22:20:06.954Z,998.61
2019-02-28T22:25:10.238Z,998.6
2019-02-28T22:30:03.878Z,998.63
2019-02-28T22:35:07.197Z,998.56
2019-02-28T22:40:09.776Z,998.55
2019-02-28T22:45:04.237Z,998.41
2019-02-28T22:50:07.338Z,998.4
2019-02-28T22:55:09.799Z,998.32
2019-02-28T23:00:04.372Z,998.16
2019-02-28T23:05:09.771Z,998.15
2019-02-28T23:10:09.128Z,998.19
2019-02-28T23:15:03.771Z,998.09
2019-02-28T23:20:09.498Z,998.05
2019-02-28T23:25:08.209Z,997.99
2019-02-28T23:30:03.928Z,998
2019-02-28T23:35:08.705Z,997.95
2019-02-28T23:40:07.985Z,997.93
2019-02-28T23:45:04.431Z,997.88
2019-02-28T23:50:07.642Z,997.79
2019-02-28T23:55:08.194Z,997.71
